Latest Weather Observations for Tamworth Airport

IDN60801

Issued at 7:35 am EST Friday 19 September 2014 (issued every 30 minutes, with the page automatically refreshed every 10 minutes)

About weather observations | Map of weather stations | Latest weather observations for NSW | Other Formats
Station Details ID: 055325 Name: TAMWORTH AIRPORT AWS Lat: -31.07 Lon: 150.84 Height: 394.9 m
Data from the previous 72 hours. | See also: Recent months at Tamworth Airport
Date/Time
EST
Temp
°C
App
Temp
°C
Dew
Point
Rel
Hum
%
Delta-T
°C
Wind Press
QNH
hPa
Press
MSL
hPa
Rain
since 9 am
mm
Dir
 
Spd
km/h
Gust
km/h
Spd
kts
Gust
kts
19/07:30am 6.0 2.7 -1.6 58 2.9 E 6 9 3 5 1022.8 1022.5 0.0
19/07:00am 4.9 0.9 -2.2 60 2.6 ESE 9 11 5 6 1022.6 1022.2 0.0
19/06:30am 2.8 -0.7 -1.7 72 1.6 SE 7 9 4 5 1022.4 1022.0 0.0
19/06:00am 1.0 -2.7 -3.1 74 1.5 SSE 7 9 4 5 1022.1 1021.7 0.0
19/05:30am 0.7 -3.8 -3.6 73 1.5 SE 11 13 6 7 1021.9 1021.5 0.0
19/05:00am 0.3 -4.3 -4.5 70 1.6 SSE 11 13 6 7 1021.7 1021.3 0.0
19/04:30am 1.0 -3.5 -3.5 72 1.6 SE 11 13 6 7 1021.3 1020.9 0.0
19/04:00am 0.8 -3.4 -4.0 70 1.7 SE 9 13 5 7 1021.1 1020.7 0.0
19/03:30am 1.2 -2.7 -4.2 67 1.9 ESE 7 11 4 6 1021.0 1020.6 0.0
19/03:00am 2.2 -0.3 -3.7 65 2.0 CALM 0 0 0 0 1021.0 1020.6 0.0
19/02:30am 1.8 -1.0 -3.7 67 2.0 N 2 7 1 4 1021.1 1020.7 0.0
19/02:00am 3.6 -0.2 -3.9 58 2.6 E 7 9 4 5 1021.4 1021.0 0.0
19/01:30am 3.6 -0.6 -3.9 58 2.6 ENE 9 11 5 6 1021.5 1021.1 0.0
19/01:00am 5.6 3.1 -4.3 49 3.5 CALM 0 0 0 0 1021.5 1021.1 0.0
19/12:30am 6.2 3.6 -4.5 46 3.8 CALM 0 0 0 0 1021.5 1021.1 0.0
19/12:00am 7.0 3.3 -4.4 44 4.1 NE 6 9 3 5 1021.5 1021.1 0.0
 
Date/Time
EST
Temp
°C
App
Temp
°C
Dew
Point
Rel
Hum
%
Delta-T
°C
Wind Press
QNH
hPa
Press
MSL
hPa
Rain
since 9 am
mm
Dir
 
Spd
km/h
Gust
km/h
Spd
kts
Gust
kts
18/11:30pm 4.9 0.9 -5.2 48 3.4 NE 7 9 4 5 1021.6 1021.2 0.0
18/11:00pm 6.5 2.2 -4.6 45 3.9 NNE 9 13 5 7 1021.5 1021.1 0.0
18/10:30pm 8.4 4.7 -3.1 44 4.3 NE 7 13 4 7 1021.5 1021.1 0.0
18/10:00pm 9.0 6.5 -3.9 40 4.8 CALM 0 6 0 3 1021.4 1021.0 0.0
18/09:30pm 6.1 3.2 -3.8 49 3.6 ESE 2 9 1 5 1021.4 1021.0 0.0
18/09:00pm 6.8 1.8 -4.3 45 4.0 WSW 13 13 7 7 1021.1 1020.7 0.0
18/08:30pm 6.6 2.1 -3.6 48 3.7 SW 11 13 6 7 1020.9 1020.5 0.0
18/08:00pm 9.4 4.3 -4.9 36 5.2 SW 13 13 7 7 1020.5 1020.2 0.0
18/07:30pm 10.3 5.2 -5.6 32 5.8 SW 13 15 7 8 1020.1 1019.7 0.0
18/07:00pm 11.9 7.2 -5.1 30 6.3 W 11 13 6 7 1019.9 1019.5 0.0
18/06:30pm 12.5 7.8 -4.6 30 6.5 W 11 11 6 6 1019.7 1019.3 0.0
18/06:00pm 14.2 9.6 -4.5 27 7.2 WNW 11 13 6 7 1019.2 1018.8 0.0
18/05:30pm 17.0 11.7 -3.7 24 8.4 W 15 22 8 12 1018.7 1018.3 0.0
18/05:00pm 19.1 12.8 -5.7 18 9.9 WSW 19 28 10 15 1018.3 1017.8 0.0
18/04:30pm 19.8 13.4 -6.7 16 10.4 W 19 22 10 12 1017.9 1017.5 0.0
18/04:00pm 20.1 12.7 -7.3 15 10.7 WSW 24 32 13 17 1017.8 1017.4 0.0
18/03:30pm 20.3 13.4 -6.3 16 10.6 W 22 30 12 16 1017.9 1017.5 0.0
18/03:00pm 20.5 13.9 -7.0 15 10.8 WSW 20 30 11 16 1018.0 1017.6 0.0
18/02:30pm 20.3 13.2 -8.0 14 10.9 W 22 37 12 20 1018.2 1017.7 0.0
18/02:00pm 20.4 14.0 -4.7 18 10.3 W 20 33 11 18 1018.2 1017.7 0.0
18/01:30pm 19.5 13.3 -4.7 19 9.9 W 19 26 10 14 1018.6 1018.2 0.0
18/01:00pm 19.6 12.8 -2.1 23 9.3 W 24 28 13 15 1018.9 1018.5 0.0
18/12:30pm 18.6 13.1 -1.8 25 8.8 W 17 28 9 15 1019.4 1019.0 0.0
18/12:00pm 17.9 11.8 -2.4 25 8.5 WSW 20 33 11 18 1019.8 1019.4 0.0
18/11:30am 16.7 10.7 -2.9 26 8.1 W 19 26 10 14 1020.3 1019.9 0.0
18/11:00am 16.3 11.5 -2.2 28 7.7 WSW 13 22 7 12 1020.6 1020.3 0.0
18/10:30am 16.1 11.4 -1.9 29 7.5 SW 13 20 7 11 1021.0 1020.6 0.0
18/10:00am 15.0 9.9 -2.0 31 7.0 W 15 24 8 13 1021.3 1020.9 0.0
18/09:30am 14.8 10.7 -0.1 36 6.4 W 11 22 6 12 1021.6 1021.2 0.0
18/09:00am 13.9 10.6 0.2 39 5.9 W 7 11 4 6 1021.6 1021.2 0.0
18/08:30am 12.7 9.6 1.1 45 5.0 N 7 11 4 6 1021.7 1021.3 0.0
18/08:00am 10.9 7.7 0.6 49 4.3 N 7 9 4 5 1021.6 1021.2 0.0
18/07:30am 9.2 6.0 0.6 55 3.6 NNE 7 9 4 5 1021.2 1020.8 0.0
18/07:00am 7.4 4.8 0.8 63 2.7 N 4 7 2 4 1021.0 1020.6 0.0
18/06:30am 5.7 2.4 0.1 67 2.2 ENE 7 9 4 5 1020.5 1020.2 0.0
18/06:00am 5.1 1.7 -0.9 65 2.3 N 7 9 4 5 1020.2 1019.8 0.0
18/05:30am 4.6 1.4 -0.8 68 2.1 NE 6 7 3 4 1020.0 1019.6 0.0
18/05:00am 5.2 2.4 -0.4 67 2.2 N 4 9 2 5 1019.6 1019.2 0.0
18/04:30am 6.0 2.8 -0.5 63 2.5 N 6 7 3 4 1019.3 1018.9 0.0
18/04:00am 6.3 3.1 -0.4 62 2.6 NNW 6 7 3 4 1018.9 1018.5 0.0
18/03:30am 6.1 4.1 -0.4 63 2.5 CALM 0 0 0 0 1018.6 1018.2 0.0
18/03:00am 6.1 2.7 -0.6 62 2.6 SW 7 9 4 5 1018.4 1017.9 0.0
18/02:30am 6.6 1.7 -0.4 61 2.8 WSW 15 15 8 8 1018.3 1017.8 0.0
18/02:00am 6.9 2.1 0.1 62 2.7 W 15 17 8 9 1018.3 1017.8 0.0
18/01:30am 7.4 3.0 0.4 61 2.8 W 13 13 7 7 1018.2 1017.7 0.0
18/01:00am 7.5 3.0 -0.5 57 3.2 WSW 13 15 7 8 1018.0 1017.6 0.0
18/12:30am 9.1 4.6 -0.2 52 3.8 SW 13 17 7 9 1018.2 1017.7 0.0
18/12:00am 10.5 5.6 -0.6 46 4.5 WSW 15 17 8 9 1018.2 1017.7 0.0
 
Date/Time
EST
Temp
°C
App
Temp
°C
Dew
Point
Rel
Hum
%
Delta-T
°C
Wind Press
QNH
hPa
Press
MSL
hPa
Rain
since 9 am
mm
Dir
 
Spd
km/h
Gust
km/h
Spd
kts
Gust
kts
17/11:30pm 10.8 6.5 0.8 50 4.2 WSW 13 15 7 8 1017.8 1017.4 0.0
17/11:00pm 11.6 8.1 1.5 50 4.4 W 9 11 5 6 1017.7 1017.3 0.0
17/10:30pm 10.6 7.0 0.9 51 4.1 W 9 11 5 6 1017.7 1017.3 0.0
17/10:00pm 11.2 6.7 -0.6 44 4.8 WSW 13 15 7 8 1017.6 1017.2 0.0
17/09:30pm 12.3 8.2 0.1 43 5.1 WSW 11 15 6 8 1017.6 1017.2 0.0
17/09:00pm 14.4 9.2 -0.1 37 6.2 WSW 17 22 9 12 1017.3 1016.9 0.0
17/08:30pm 15.6 9.5 0.2 35 6.7 WSW 22 28 12 15 1017.0 1016.6 0.0
17/08:00pm 15.6 10.0 0.2 35 6.7 WSW 19 24 10 13 1016.8 1016.4 0.0
17/07:30pm 15.1 10.4 0.9 38 6.3 WSW 15 20 8 11 1016.5 1016.1 0.0
17/07:00pm 15.2 10.0 0.2 36 6.5 WSW 17 20 9 11 1016.1 1015.6 0.0
17/06:30pm 14.2 8.9 -0.3 37 6.2 WSW 17 20 9 11 1015.7 1015.2 0.0
17/06:00pm 14.6 9.7 -0.7 35 6.5 WSW 15 19 8 10 1015.2 1014.8 0.0
17/05:30pm 16.5 10.6 -0.7 31 7.4 W 20 30 11 16 1014.8 1014.4 0.0
17/05:00pm 17.7 10.7 -0.5 29 8.0 W 26 33 14 18 1014.4 1014.0 0.0
17/04:30pm 19.7 13.3 0.7 28 8.7 W 24 32 13 17 1014.0 1013.5 0.0
17/04:00pm 18.6 13.0 -0.2 28 8.4 W 19 28 10 15 1013.8 1013.3 0.0
17/03:30pm 18.6 11.6 -0.2 28 8.3 W 26 37 14 20 1013.8 1013.3 0.0
17/03:00pm 20.2 12.9 0.1 26 9.1 W 28 37 15 20 1013.7 1013.2 0.0
17/02:30pm 20.5 13.8 1.4 28 8.9 W 26 43 14 23 1013.7 1013.2 0.0
17/02:00pm 20.4 13.2 0.8 27 9.0 W 28 37 15 20 1013.8 1013.3 0.0
17/01:30pm 19.4 12.6 0.9 29 8.5 W 26 35 14 19 1014.1 1013.7 0.0
17/01:00pm 19.6 13.3 1.6 30 8.4 WNW 24 35 13 19 1014.2 1013.8 0.0
17/12:30pm 17.9 12.3 1.4 33 7.5 W 20 33 11 18 1014.4 1014.0 0.0
17/12:00pm 19.2 12.5 1.2 30 8.3 W 26 35 14 19 1014.8 1014.4 0.0
17/11:30am 18.4 12.8 1.0 31 7.9 WNW 20 33 11 18 1015.1 1014.7 0.0
17/11:00am 17.4 11.8 1.0 33 7.4 W 20 30 11 16 1015.8 1015.3 0.0
17/10:30am 16.9 13.2 2.1 37 6.8 WSW 11 20 6 11 1016.1 1015.6 0.0
17/10:00am 16.3 11.1 2.3 39 6.4 SW 19 28 10 15 1016.2 1015.7 0.0
17/09:30am 16.6 11.4 3.6 42 6.1 SW 20 26 11 14 1016.4 1016.0 0.0
17/09:00am 15.0 12.2 5.0 51 4.8 NW 9 15 5 8 1016.6 1016.2 0.0
17/08:30am 13.8 11.4 5.4 57 4.0 NW 7 13 4 7 1016.7 1016.3 0.0
17/08:00am 12.6 10.0 6.0 64 3.2 NNW 9 13 5 7 1016.7 1016.3 0.0
17/07:30am 10.1 7.8 4.7 69 2.5 NNE 6 7 3 4 1016.5 1016.1 0.0
17/07:00am 8.6 7.4 4.4 75 1.9 CALM 0 0 0 0 1016.0 1015.5 0.0
17/06:30am 6.3 4.9 3.3 81 1.3 CALM 0 0 0 0 1015.6 1015.1 0.0
17/06:00am 5.4 3.1 2.8 83 1.1 N 4 7 2 4 1015.5 1015.0 0.0
17/05:30am 5.7 3.0 2.5 80 1.3 N 6 9 3 5 1015.1 1014.7 0.0
17/05:00am 5.8 2.9 1.7 75 1.7 NW 6 7 3 4 1014.9 1014.5 0.0
17/04:30am 6.9 3.7 3.3 78 1.6 WNW 9 13 5 7 1014.9 1014.5 0.0
17/04:00am 6.8 4.0 3.1 77 1.6 W 7 9 4 5 1014.6 1014.2 0.0
17/03:30am 6.5 3.7 2.0 73 1.9 N 6 7 3 4 1014.4 1014.0 0.0
17/03:00am 7.7 5.1 3.2 73 2.0 NNE 6 9 3 5 1014.5 1014.1 0.0
17/02:30am 8.6 5.5 3.6 71 2.2 N 9 11 5 6 1014.6 1014.2 0.0
17/02:00am 8.6 5.5 3.6 71 2.2 NE 9 11 5 6 1014.9 1014.5 0.0
17/01:30am 8.9 7.1 3.5 69 2.4 SW 2 11 1 6 1015.0 1014.6 0.0
17/01:00am 9.4 6.2 2.9 64 2.8 W 9 11 5 6 1015.0 1014.6 0.0
17/12:30am 10.7 6.6 4.2 64 3.0 W 15 19 8 10 1015.1 1014.7 0.0
17/12:00am 12.0 7.0 4.5 60 3.5 WSW 20 24 11 13 1015.0 1014.6 0.0
 
Date/Time
EST
Temp
°C
App
Temp
°C
Dew
Point
Rel
Hum
%
Delta-T
°C
Wind Press
QNH
hPa
Press
MSL
hPa
Rain
since 9 am
mm
Dir
 
Spd
km/h
Gust
km/h
Spd
kts
Gust
kts
16/11:30pm 11.8 8.0 5.7 66 2.9 WSW 15 24 8 13 1014.9 1014.5 0.0
16/11:00pm 10.8 7.1 4.3 64 3.0 W 13 15 7 8 1014.9 1014.5 0.0
16/10:30pm 13.4 8.5 5.3 58 3.9 WSW 20 26 11 14 1014.7 1014.3 0.0
16/10:00pm 11.5 7.1 4.9 64 3.1 W 17 19 9 10 1014.6 1014.2 0.0
16/09:30pm 12.5 8.5 4.7 59 3.7 WSW 15 19 8 10 1014.3 1013.9 0.0
16/09:00pm 13.8 9.4 4.9 55 4.2 W 17 20 9 11 1014.2 1013.8 0.0
16/08:30pm 14.7 9.8 5.2 53 4.6 W 20 26 11 14 1014.0 1013.5 0.0
16/08:00pm 13.7 9.9 3.8 51 4.6 W 13 19 7 10 1013.7 1013.2 0.0
16/07:30pm 14.7 10.3 2.9 45 5.4 WNW 15 19 8 10 1013.4 1012.9 0.0
16/07:00pm 15.0 10.9 2.2 42 5.8 W 13 17 7 9 1013.1 1012.6 0.0
16/06:30pm 16.0 11.8 1.7 38 6.5 W 13 17 7 9 1012.4 1012.0 0.0
16/06:00pm 17.7 11.8 1.7 34 7.3 W 22 28 12 15 1011.9 1011.5 0.0
16/05:30pm 19.3 13.4 1.8 31 8.1 W 22 30 12 16 1011.5 1011.0 0.0
16/05:00pm 20.9 14.3 2.2 29 8.9 W 26 41 14 22 1011.0 1010.5 0.0
16/04:30pm 22.1 14.3 1.7 26 9.7 WNW 32 50 17 27 1010.5 1010.0 0.0
16/04:22pm 22.2 14.2 0.1 23 10.2 WNW 32 50 17 27 1010.3 1009.8 0.0
16/04:00pm 23.0 15.1 0.8 23 10.4 WNW 32 41 17 22 1010.2 1009.7 0.0
16/03:30pm 23.2 14.6 0.3 22 10.7 NW 35 52 19 28 1009.8 1009.4 0.0
16/03:00pm 23.2 14.7 0.9 23 10.5 NW 35 54 19 29 1009.8 1009.4 0.0
16/02:55pm 23.7 15.6 0.7 22 10.8 NW 33 54 18 29 1009.6 1009.1 0.0
16/02:30pm 24.0 14.4 1.0 22 10.9 NW 41 54 22 29 1009.7 1009.3 0.0
16/02:00pm 23.9 15.2 2.1 24 10.6 NW 37 50 20 27 1009.7 1009.3 0.0
16/01:30pm 24.2 16.3 2.4 24 10.6 NW 33 50 18 27 1010.1 1009.6 0.0
16/01:22pm 24.1 15.9 2.9 25 10.4 WNW 35 54 19 29 1010.2 1009.7 0.0
16/01:00pm 23.8 13.8 0.8 22 10.9 NW 43 56 23 30 1010.5 1010.0 0.0
16/12:30pm 24.0 14.1 1.6 23 10.8 WNW 43 56 23 30 1010.7 1010.2 0.0
16/12:00pm 24.6 16.1 3.3 25 10.6 WNW 37 52 20 28 1011.0 1010.5 0.0
16/11:54am 24.4 15.5 3.1 25 10.5 WNW 39 57 21 31 1011.0 1010.5 0.0
16/11:30am 24.4 15.9 3.1 25 10.5 WNW 37 54 20 29 1011.1 1010.6 0.0
16/11:09am 24.9 16.8 3.5 25 10.7 WNW 35 44 19 24 1011.1 1010.6 0.0
16/11:00am 25.0 16.7 4.2 26 10.6 NNW 37 54 20 29 1011.2 1010.7 0.0
16/10:30am 24.2 16.8 5.1 29 9.8 N 33 43 18 23 1011.5 1011.0 0.0
16/10:13am 23.7 16.5 5.1 30 9.5 N 32 52 17 28 1011.5 1011.0 0.0
16/10:00am 23.2 15.2 3.7 28 9.7 NNW 35 46 19 25 1012.0 1011.6 0.0
16/09:30am 21.3 14.7 4.4 33 8.4 NNW 28 35 15 19 1012.6 1012.2 0.0
16/09:00am 21.1 14.3 5.1 35 8.0 N 30 41 16 22 1012.8 1012.3 0.0
16/08:49am 21.6 14.9 5.5 35 8.2 N 30 39 16 21 1013.0 1012.5 0.0
16/08:30am 19.8 17.1 5.8 40 7.1 NNW 9 19 5 10 1013.3 1012.8 0.0
16/08:00am 17.8 16.3 7.0 49 5.5 W 4 9 2 5 1013.3 1012.8 0.0

Other Formats:

Comma delimited format used in spreadsheet applications
http://www.bom.gov.au/fwo/IDN60801/IDN60801.95762.axf

JavaScript Object Notation format (JSON) in row-major order
http://www.bom.gov.au/fwo/IDN60801/IDN60801.95762.json